createdAt,value
2023-02-05T00:01:49.278Z,-2.19
2023-02-05T00:04:15.588Z,-2.04
2023-02-05T00:06:41.944Z,-1.96
2023-02-05T00:09:08.248Z,-1.98
2023-02-05T00:11:34.610Z,-1.94
2023-02-05T00:14:00.994Z,-1.95
2023-02-05T00:16:27.646Z,-1.99
2023-02-05T00:18:54.315Z,-2.15
2023-02-05T00:21:21.423Z,-2.01
2023-02-05T00:23:48.194Z,-1.95
2023-02-05T00:26:14.840Z,-1.99
2023-02-05T00:28:41.759Z,-2.11
2023-02-05T00:31:16.193Z,-2.11
2023-02-05T00:33:43.016Z,-2.13
2023-02-05T00:36:12.431Z,-2.19
2023-02-05T00:38:39.723Z,-2.24
2023-02-05T00:41:06.095Z,-2.32
2023-02-05T00:43:32.433Z,-2.43
2023-02-05T00:45:58.810Z,-2.40
2023-02-05T00:48:25.181Z,-2.32
2023-02-05T00:50:52.087Z,-2.43
2023-02-05T00:53:19.182Z,-2.37
2023-02-05T00:55:45.605Z,-2.43
2023-02-05T00:58:12.150Z,-2.38
2023-02-05T01:00:38.753Z,-2.37
2023-02-05T01:03:05.216Z,-2.41
2023-02-05T01:05:33.274Z,-2.43
2023-02-05T01:07:59.763Z,-2.47
2023-02-05T01:10:26.449Z,-2.46
2023-02-05T01:12:52.978Z,-2.53
2023-02-05T01:15:19.625Z,-2.59
2023-02-05T01:17:46.403Z,-2.59
2023-02-05T01:20:13.453Z,-2.59
2023-02-05T01:22:40.042Z,-2.62
2023-02-05T01:25:06.650Z,-2.65
2023-02-05T01:27:33.733Z,-2.64
2023-02-05T01:30:00.208Z,-2.63
2023-02-05T01:32:27.720Z,-2.73
2023-02-05T01:34:54.228Z,-2.65
2023-02-05T01:37:20.779Z,-2.72
2023-02-05T01:39:47.092Z,-2.67
2023-02-05T01:42:18.326Z,-2.64
2023-02-05T01:44:44.995Z,-2.73
2023-02-05T01:47:11.323Z,-2.67
2023-02-05T01:49:42.203Z,-2.92
2023-02-05T01:52:11.785Z,-2.79
2023-02-05T01:54:40.315Z,-2.78
2023-02-05T01:57:09.743Z,-2.86
2023-02-05T01:59:38.813Z,-2.87
2023-02-05T02:02:07.998Z,-2.81
2023-02-05T02:04:42.129Z,-2.76
2023-02-05T02:07:10.395Z,-2.75
2023-02-05T02:09:38.275Z,-2.78
2023-02-05T02:12:04.770Z,-2.80
2023-02-05T02:14:32.038Z,-2.84
2023-02-05T02:17:00.438Z,-2.84
2023-02-05T02:19:31.604Z,-2.92
2023-02-05T02:21:57.868Z,-2.97
2023-02-05T02:24:42.525Z,-2.97
2023-02-05T02:27:18.060Z,-2.94
2023-02-05T02:29:52.079Z,-2.92
2023-02-05T02:32:24.890Z,-2.87
2023-02-05T02:34:55.854Z,-2.82
2023-02-05T02:37:31.143Z,-2.80
2023-02-05T02:40:00.430Z,-2.92
2023-02-05T02:42:40.523Z,-2.92
2023-02-05T02:45:08.288Z,-3.01
2023-02-05T02:47:37.478Z,-3.01
2023-02-05T02:50:11.374Z,-3.08
2023-02-05T02:52:39.835Z,-3.21
2023-02-05T02:55:09.492Z,-3.13
2023-02-05T02:57:37.784Z,-3.12
2023-02-05T03:00:08.904Z,-3.18
2023-02-05T03:02:37.466Z,-3.22
2023-02-05T03:05:07.829Z,-3.19
2023-02-05T03:07:36.476Z,-3.10
2023-02-05T03:10:07.625Z,-3.07
2023-02-05T03:12:34.269Z,-3.17
2023-02-05T03:15:00.729Z,-3.06
2023-02-05T03:17:27.705Z,-2.85
2023-02-05T03:20:02.918Z,-2.82
2023-02-05T03:22:29.260Z,-2.77
2023-02-05T03:24:55.798Z,-2.74
2023-02-05T03:27:22.625Z,-2.71
2023-02-05T03:29:49.544Z,-2.69
2023-02-05T03:32:18.938Z,-2.64
2023-02-05T03:35:00.580Z,-2.66
2023-02-05T03:37:45.566Z,-2.72
2023-02-05T03:40:11.862Z,-2.71
2023-02-05T03:42:50.236Z,-2.70
2023-02-05T03:45:26.134Z,-2.68
2023-02-05T03:48:04.715Z,-2.70
2023-02-05T03:50:39.922Z,-2.67
2023-02-05T03:53:12.176Z,-2.64
2023-02-05T03:55:40.973Z,-2.77
2023-02-05T03:58:11.039Z,-2.70
2023-02-05T04:00:37.610Z,-2.73
2023-02-05T04:03:04.219Z,-2.77
2023-02-05T04:05:30.656Z,-2.69
2023-02-05T04:07:57.011Z,-2.68
2023-02-05T04:10:23.388Z,-2.69
2023-02-05T04:12:49.741Z,-2.71
2023-02-05T04:15:16.091Z,-2.65
2023-02-05T04:17:42.411Z,-2.66
2023-02-05T04:20:08.986Z,-2.68
2023-02-05T04:22:35.367Z,-2.65
2023-02-05T04:25:01.694Z,-2.62
2023-02-05T04:27:28.080Z,-2.57
2023-02-05T04:29:54.406Z,-2.48
2023-02-05T04:32:20.716Z,-2.45
2023-02-05T04:34:47.026Z,-2.40
2023-02-05T04:37:13.305Z,-2.36
2023-02-05T04:39:39.659Z,-2.46
2023-02-05T04:42:05.994Z,-2.43
2023-02-05T04:44:32.296Z,-2.37
2023-02-05T04:46:59.556Z,-2.22
2023-02-05T04:49:25.927Z,-2.25
2023-02-05T04:51:52.231Z,-2.07
2023-02-05T04:54:18.618Z,-2.09
2023-02-05T04:56:46.742Z,-1.99
2023-02-05T04:59:13.080Z,-1.86
2023-02-05T05:01:39.374Z,-1.86
2023-02-05T05:04:05.676Z,-1.87
2023-02-05T05:06:32.100Z,-1.76
2023-02-05T05:08:58.440Z,-1.79
2023-02-05T05:11:24.719Z,-1.63
2023-02-05T05:13:52.087Z,-1.54
2023-02-05T05:16:18.792Z,-1.59
2023-02-05T05:18:45.112Z,-1.59
2023-02-05T05:21:11.987Z,-1.71
2023-02-05T05:23:38.407Z,-1.60
2023-02-05T05:26:06.017Z,-1.59
2023-02-05T05:28:34.457Z,-1.62
2023-02-05T05:31:07.499Z,-1.65
2023-02-05T05:33:33.819Z,-1.62
2023-02-05T05:36:00.122Z,-1.64
2023-02-05T05:38:26.454Z,-1.72
2023-02-05T05:41:11.376Z,-1.68
2023-02-05T05:43:46.435Z,-1.71
2023-02-05T05:46:13.418Z,-1.70
2023-02-05T05:48:39.727Z,-1.48
2023-02-05T05:51:06.044Z,-1.49
2023-02-05T05:53:32.760Z,-1.49
2023-02-05T05:55:59.423Z,-1.44
2023-02-05T05:58:25.734Z,-1.90
2023-02-05T06:00:52.098Z,-1.87
2023-02-05T06:03:18.455Z,-1.57
2023-02-05T06:05:44.794Z,-1.50
2023-02-05T06:08:11.204Z,-1.46
2023-02-05T06:10:37.550Z,-1.36
2023-02-05T06:13:03.884Z,-1.52
2023-02-05T06:15:30.181Z,-1.39
2023-02-05T06:17:56.490Z,-1.38
2023-02-05T06:20:23.948Z,-1.32
2023-02-05T06:22:50.265Z,-1.17
2023-02-05T06:25:16.711Z,-1.11
2023-02-05T06:27:43.018Z,-1.15
2023-02-05T06:30:09.968Z,-1.22
2023-02-05T06:32:36.297Z,-1.09
2023-02-05T06:35:02.630Z,-1.11
2023-02-05T06:37:46.119Z,-1.02
2023-02-05T06:40:15.481Z,-0.99
2023-02-05T06:42:41.933Z,-1.16
2023-02-05T06:45:08.562Z,-0.99
2023-02-05T06:47:34.886Z,-0.98
2023-02-05T06:50:01.191Z,-0.96
2023-02-05T06:52:27.548Z,-1.09
2023-02-05T06:54:53.855Z,-1.00
2023-02-05T06:57:20.164Z,-0.98
2023-02-05T06:59:46.444Z,-1.08
2023-02-05T07:02:13.368Z,-0.94
2023-02-05T07:04:39.705Z,-1.34
2023-02-05T07:07:06.130Z,-1.41
2023-02-05T07:09:32.567Z,-1.15
2023-02-05T07:11:58.890Z,-0.94
2023-02-05T07:14:25.200Z,-1.20
2023-02-05T07:16:51.612Z,-1.05
2023-02-05T07:19:17.899Z,-0.98
2023-02-05T07:21:44.474Z,-0.91
2023-02-05T07:24:10.808Z,-0.90
2023-02-05T07:26:38.600Z,-0.83
2023-02-05T07:29:04.925Z,-0.94
2023-02-05T07:31:31.364Z,-1.09
2023-02-05T07:33:57.727Z,-0.83
2023-02-05T07:36:24.077Z,-0.88
2023-02-05T07:38:50.485Z,-0.73
2023-02-05T07:41:16.910Z,-1.06
2023-02-05T07:43:43.554Z,-1.23
2023-02-05T07:46:14.523Z,-1.03
2023-02-05T07:48:40.862Z,-1.10
2023-02-05T07:51:07.239Z,-1.10
2023-02-05T07:53:33.741Z,-1.04
2023-02-05T07:56:03.933Z,-1.05
2023-02-05T07:58:30.292Z,-0.83
2023-02-05T08:01:00.062Z,-0.82
2023-02-05T08:03:26.418Z,-0.68
2023-02-05T08:05:53.008Z,-0.81
2023-02-05T08:08:19.405Z,-0.72
2023-02-05T08:10:45.701Z,-0.89
2023-02-05T08:13:11.999Z,-0.66
2023-02-05T08:15:39.068Z,-0.57
2023-02-05T08:18:05.431Z,-0.67
2023-02-05T08:20:31.923Z,-0.71
2023-02-05T08:22:58.296Z,-0.58
2023-02-05T08:25:24.640Z,-0.65
2023-02-05T08:27:50.929Z,-0.59
2023-02-05T08:30:18.068Z,-0.59
2023-02-05T08:32:47.364Z,-0.69
2023-02-05T08:35:13.663Z,-0.47
2023-02-05T08:37:40.016Z,-0.56
2023-02-05T08:40:06.558Z,-0.50
2023-02-05T08:42:32.901Z,-0.46
2023-02-05T08:44:59.886Z,-0.41
2023-02-05T08:47:26.505Z,-0.14
2023-02-05T08:49:52.886Z,0.08
2023-02-05T08:52:19.240Z,-0.05
2023-02-05T08:54:46.592Z,-0.13
2023-02-05T08:57:12.984Z,-0.11
2023-02-05T08:59:39.401Z,-0.13
2023-02-05T09:02:05.754Z,-0.17
2023-02-05T09:04:32.126Z,-0.09
2023-02-05T09:06:58.579Z,0.02
2023-02-05T09:09:24.935Z,-0.11
2023-02-05T09:11:51.340Z,-0.05
2023-02-05T09:14:17.687Z,-0.09
2023-02-05T09:16:44.030Z,-0.03
2023-02-05T09:19:10.355Z,0.11
2023-02-05T09:21:36.707Z,0.17
2023-02-05T09:24:03.085Z,0.12
2023-02-05T09:26:29.475Z,0.18
2023-02-05T09:28:55.815Z,0.22
2023-02-05T09:31:22.302Z,0.27
2023-02-05T09:33:48.897Z,0.32
2023-02-05T09:36:16.966Z,0.38
2023-02-05T09:38:45.486Z,0.37
2023-02-05T09:41:14.894Z,0.42
2023-02-05T09:43:50.473Z,0.41
2023-02-05T09:46:19.867Z,0.51
2023-02-05T09:48:53.785Z,0.44
2023-02-05T09:51:30.298Z,0.50
2023-02-05T09:54:00.267Z,0.52
2023-02-05T09:56:27.500Z,0.59
2023-02-05T09:58:54.884Z,0.70
2023-02-05T10:01:22.802Z,0.77
2023-02-05T10:03:56.009Z,0.71
2023-02-05T10:06:25.169Z,0.76
2023-02-05T10:08:54.465Z,0.80
2023-02-05T10:11:41.031Z,0.80
2023-02-05T10:14:13.247Z,0.94
2023-02-05T10:16:52.779Z,0.97
2023-02-05T10:19:24.757Z,1.07
2023-02-05T10:21:53.831Z,1.12
2023-02-05T10:24:35.421Z,1.08
2023-02-05T10:27:11.114Z,1.12
2023-02-05T10:29:43.898Z,1.13
2023-02-05T10:32:23.881Z,1.14
2023-02-05T10:34:57.868Z,1.19
2023-02-05T10:37:32.505Z,1.16
2023-02-05T10:39:59.356Z,1.16
2023-02-05T10:42:34.735Z,1.19
2023-02-05T10:45:12.840Z,1.39
2023-02-05T10:47:53.103Z,1.32
2023-02-05T10:50:30.684Z,1.34
2023-02-05T10:52:57.093Z,1.44
2023-02-05T10:55:23.475Z,1.47
2023-02-05T10:57:49.928Z,1.45
2023-02-05T11:00:18.381Z,1.47
2023-02-05T11:02:47.630Z,1.40
2023-02-05T11:05:17.082Z,1.48
2023-02-05T11:07:50.672Z,1.46
2023-02-05T11:10:17.043Z,1.55
2023-02-05T11:12:44.697Z,1.64
2023-02-05T11:15:19.904Z,1.66
2023-02-05T11:17:50.012Z,1.60
2023-02-05T11:20:16.629Z,1.65
2023-02-05T11:22:42.961Z,1.69
2023-02-05T11:25:26.278Z,1.77
2023-02-05T11:27:52.919Z,1.98
2023-02-05T11:30:47.601Z,1.80
2023-02-05T11:33:24.320Z,1.83
2023-02-05T11:36:01.697Z,1.91
2023-02-05T11:38:30.953Z,1.90
2023-02-05T11:40:58.882Z,1.98
2023-02-05T11:43:34.178Z,1.94
2023-02-05T11:46:01.868Z,1.98
2023-02-05T11:48:38.933Z,2.01
2023-02-05T11:51:07.012Z,1.97
2023-02-05T11:53:34.752Z,2.03
2023-02-05T11:56:08.238Z,2.00
2023-02-05T11:58:37.295Z,2.03
2023-02-05T12:01:21.419Z,2.10
2023-02-05T12:03:57.724Z,2.09
2023-02-05T12:06:28.922Z,2.07
2023-02-05T12:08:55.453Z,2.06
2023-02-05T12:11:21.704Z,2.11
2023-02-05T12:13:50.987Z,2.06
2023-02-05T12:16:36.310Z,2.11
2023-02-05T12:19:07.492Z,2.21
2023-02-05T12:21:42.768Z,2.19
2023-02-05T12:24:25.396Z,2.14
2023-02-05T12:26:56.053Z,2.25
2023-02-05T12:29:22.412Z,2.24
2023-02-05T12:32:04.851Z,2.18
2023-02-05T12:34:34.210Z,2.19
2023-02-05T12:37:09.552Z,2.21
2023-02-05T12:39:38.653Z,2.23
2023-02-05T12:42:11.773Z,2.22
2023-02-05T12:45:03.529Z,2.22
2023-02-05T12:47:36.018Z,2.32
2023-02-05T12:50:02.287Z,2.27
2023-02-05T12:52:42.537Z,2.30
2023-02-05T12:55:08.872Z,2.24
2023-02-05T12:57:46.832Z,2.35
2023-02-05T13:00:19.640Z,2.38
2023-02-05T13:03:05.781Z,2.40
2023-02-05T13:05:38.086Z,2.27
2023-02-05T13:08:24.952Z,2.48
2023-02-05T13:11:01.975Z,2.40
2023-02-05T13:13:33.099Z,2.32
2023-02-05T13:16:05.570Z,2.22
2023-02-05T13:18:38.457Z,2.36
2023-02-05T13:21:29.463Z,2.45
2023-02-05T13:24:22.392Z,2.38
2023-02-05T13:27:07.256Z,2.46
2023-02-05T13:29:39.064Z,2.52
2023-02-05T13:32:15.739Z,2.48
2023-02-05T13:34:43.164Z,2.52
2023-02-05T13:37:11.012Z,2.44
2023-02-05T13:39:40.417Z,2.45
2023-02-05T13:42:27.057Z,2.51
2023-02-05T13:44:59.394Z,2.39
2023-02-05T13:47:49.312Z,2.46
2023-02-05T13:50:28.214Z,2.36
2023-02-05T13:53:03.918Z,2.34
2023-02-05T13:55:42.310Z,2.34
2023-02-05T13:58:29.124Z,2.44
2023-02-05T14:00:55.512Z,2.35
2023-02-05T14:03:33.565Z,2.44
2023-02-05T14:05:59.913Z,2.44
2023-02-05T14:08:27.698Z,2.43
2023-02-05T14:10:58.970Z,2.40
2023-02-05T14:13:32.553Z,2.43
2023-02-05T14:16:18.852Z,2.44
2023-02-05T14:18:47.992Z,2.39
2023-02-05T14:21:29.567Z,2.49
2023-02-05T14:23:56.886Z,2.52
2023-02-05T14:26:43.178Z,2.20
2023-02-05T14:29:27.973Z,2.38
2023-02-05T14:31:54.268Z,2.42
2023-02-05T14:34:28.292Z,2.42
2023-02-05T14:36:55.116Z,2.29
2023-02-05T14:39:26.003Z,2.29
2023-02-05T14:41:58.616Z,2.32
2023-02-05T14:44:44.306Z,2.36
2023-02-05T14:47:32.813Z,2.46
2023-02-05T14:50:02.546Z,2.36
2023-02-05T14:52:37.422Z,2.34
2023-02-05T14:55:12.694Z,2.40
2023-02-05T14:57:39.012Z,2.32
2023-02-05T15:00:14.357Z,2.19
2023-02-05T15:02:46.824Z,2.19
2023-02-05T15:05:22.437Z,2.33
2023-02-05T15:07:50.611Z,2.25
2023-02-05T15:10:21.293Z,2.15
2023-02-05T15:12:56.855Z,2.24
2023-02-05T15:15:31.376Z,2.20
2023-02-05T15:18:02.294Z,2.26
2023-02-05T15:20:32.339Z,2.20
2023-02-05T15:23:04.620Z,2.23
2023-02-05T15:25:52.873Z,2.16
2023-02-05T15:28:24.820Z,2.06
2023-02-05T15:30:53.980Z,2.07
2023-02-05T15:33:27.172Z,2.10
2023-02-05T15:35:53.932Z,2.02
2023-02-05T15:38:43.065Z,2.09
2023-02-05T15:41:11.101Z,1.99
2023-02-05T15:43:37.386Z,2.01
2023-02-05T15:46:05.670Z,1.90
2023-02-05T15:48:33.827Z,2.07
2023-02-05T15:51:03.076Z,1.93
2023-02-05T15:53:34.526Z,1.93
2023-02-05T15:56:24.209Z,1.92
2023-02-05T15:58:52.535Z,1.94
2023-02-05T16:01:27.920Z,1.77
2023-02-05T16:03:54.248Z,1.88
2023-02-05T16:06:21.633Z,1.88
2023-02-05T16:08:48.742Z,1.95
2023-02-05T16:11:34.509Z,1.90
2023-02-05T16:14:07.064Z,1.87
2023-02-05T16:16:36.231Z,1.86
2023-02-05T16:19:04.606Z,1.86
2023-02-05T16:21:30.904Z,1.83
2023-02-05T16:24:02.220Z,1.82
2023-02-05T16:26:31.658Z,1.76
2023-02-05T16:29:02.797Z,1.73
2023-02-05T16:31:30.228Z,1.69
2023-02-05T16:34:00.677Z,1.65
2023-02-05T16:36:31.633Z,1.56
2023-02-05T16:39:02.433Z,1.53
2023-02-05T16:41:31.160Z,1.49
2023-02-05T16:43:58.613Z,1.45
2023-02-05T16:46:26.225Z,1.39
2023-02-05T16:48:53.931Z,1.37
2023-02-05T16:51:33.906Z,1.37
2023-02-05T16:54:01.234Z,1.31
2023-02-05T16:56:32.764Z,1.26
2023-02-05T16:59:00.649Z,1.29
2023-02-05T17:01:28.870Z,1.35
2023-02-05T17:03:55.980Z,1.21
2023-02-05T17:06:22.929Z,1.24
2023-02-05T17:08:55.018Z,1.21
2023-02-05T17:11:33.029Z,1.07
2023-02-05T17:14:10.180Z,1.06
2023-02-05T17:16:39.341Z,1.19
2023-02-05T17:19:06.644Z,1.19
2023-02-05T17:21:33.953Z,1.10
2023-02-05T17:24:02.825Z,1.10
2023-02-05T17:26:31.498Z,1.18
2023-02-05T17:29:02.691Z,1.23
2023-02-05T17:31:30.407Z,1.22
2023-02-05T17:33:58.332Z,1.18
2023-02-05T17:36:25.309Z,1.07
2023-02-05T17:38:51.742Z,0.86
2023-02-05T17:41:38.928Z,1.04
2023-02-05T17:44:05.542Z,1.09
2023-02-05T17:46:32.008Z,1.09
2023-02-05T17:48:58.316Z,1.10
2023-02-05T17:51:25.281Z,1.07
2023-02-05T17:53:51.905Z,1.09
2023-02-05T17:56:19.392Z,1.02
2023-02-05T17:58:45.757Z,1.03
2023-02-05T18:01:12.452Z,1.05
2023-02-05T18:03:38.932Z,1.04
2023-02-05T18:06:05.910Z,0.99
2023-02-05T18:08:36.088Z,1.04
2023-02-05T18:11:02.796Z,0.98
2023-02-05T18:13:29.139Z,1.00
2023-02-05T18:16:01.304Z,0.91
2023-02-05T18:18:28.018Z,0.76
2023-02-05T18:20:54.387Z,0.89
2023-02-05T18:23:28.864Z,0.89
2023-02-05T18:25:56.582Z,0.74
2023-02-05T18:28:22.956Z,1.03
2023-02-05T18:30:59.375Z,1.03
2023-02-05T18:33:25.874Z,1.01
2023-02-05T18:35:52.339Z,1.03
2023-02-05T18:38:18.807Z,1.01
2023-02-05T18:40:45.230Z,1.08
2023-02-05T18:43:12.895Z,1.02
2023-02-05T18:45:39.796Z,1.00
2023-02-05T18:48:06.124Z,1.11
2023-02-05T18:50:32.631Z,1.09
2023-02-05T18:52:59.065Z,1.06
2023-02-05T18:55:25.453Z,1.14
2023-02-05T18:57:51.943Z,1.05
2023-02-05T19:00:18.430Z,0.98
2023-02-05T19:02:44.878Z,1.06
2023-02-05T19:05:11.741Z,1.15
2023-02-05T19:07:39.183Z,1.11
2023-02-05T19:10:06.257Z,1.17
2023-02-05T19:12:32.781Z,1.15
2023-02-05T19:14:59.457Z,1.18
2023-02-05T19:17:27.368Z,1.19
2023-02-05T19:19:54.704Z,1.12
2023-02-05T19:22:21.486Z,1.15
2023-02-05T19:24:48.004Z,1.13
2023-02-05T19:27:14.430Z,1.13
2023-02-05T19:29:41.095Z,1.03
2023-02-05T19:32:08.163Z,0.88
2023-02-05T19:34:34.806Z,1.08
2023-02-05T19:37:01.701Z,1.12
2023-02-05T19:39:28.067Z,1.05
2023-02-05T19:41:54.588Z,0.94
2023-02-05T19:44:21.006Z,1.10
2023-02-05T19:46:48.792Z,1.04
2023-02-05T19:49:16.664Z,0.82
2023-02-05T19:51:50.632Z,0.89
2023-02-05T19:54:17.250Z,0.86
2023-02-05T19:56:44.132Z,0.63
2023-02-05T19:59:10.672Z,0.81
2023-02-05T20:01:38.356Z,0.88
2023-02-05T20:04:17.144Z,0.87
2023-02-05T20:06:46.071Z,0.83
2023-02-05T20:09:13.434Z,0.78
2023-02-05T20:11:41.692Z,0.71
2023-02-05T20:14:08.720Z,0.66
2023-02-05T20:16:35.232Z,0.58
2023-02-05T20:19:01.940Z,0.54
2023-02-05T20:21:29.998Z,0.46
2023-02-05T20:23:57.161Z,0.41
2023-02-05T20:26:23.964Z,0.37
2023-02-05T20:29:11.392Z,0.37
2023-02-05T20:31:41.673Z,0.27
2023-02-05T20:34:08.082Z,0.20
2023-02-05T20:36:34.897Z,0.14
2023-02-05T20:39:02.334Z,0.09
2023-02-05T20:41:28.721Z,0.10
2023-02-05T20:43:56.432Z,0.05
2023-02-05T20:46:23.349Z,0.04
2023-02-05T20:48:50.004Z,0.01
2023-02-05T20:51:17.594Z,-0.10
2023-02-05T20:53:44.783Z,-0.01
2023-02-05T20:56:13.170Z,-0.00
2023-02-05T20:58:40.012Z,-0.02
2023-02-05T21:01:11.422Z,-0.13
2023-02-05T21:03:38.990Z,-0.15
2023-02-05T21:06:05.644Z,-0.20
2023-02-05T21:08:32.510Z,-0.21
2023-02-05T21:10:58.812Z,-0.23
2023-02-05T21:13:25.293Z,-0.40
2023-02-05T21:15:55.729Z,-0.34
2023-02-05T21:18:22.785Z,-0.39
2023-02-05T21:20:49.409Z,-0.41
2023-02-05T21:23:15.865Z,-0.49
2023-02-05T21:25:42.358Z,-0.49
2023-02-05T21:28:08.783Z,-0.61
2023-02-05T21:30:35.415Z,-0.68
2023-02-05T21:33:01.944Z,-0.69
2023-02-05T21:35:28.523Z,-0.55
2023-02-05T21:37:54.885Z,-0.57
2023-02-05T21:40:21.189Z,-0.55
2023-02-05T21:42:47.598Z,-0.58
2023-02-05T21:45:13.970Z,-0.69
2023-02-05T21:47:40.302Z,-0.76
2023-02-05T21:50:06.911Z,-0.66
2023-02-05T21:52:33.342Z,-0.76
2023-02-05T21:54:59.782Z,-0.73
2023-02-05T21:57:26.077Z,-0.78
2023-02-05T21:59:52.526Z,-0.83
2023-02-05T22:02:18.863Z,-0.85
2023-02-05T22:04:47.649Z,-0.86
2023-02-05T22:07:13.982Z,-0.88
2023-02-05T22:09:40.282Z,-0.89
2023-02-05T22:12:06.632Z,-0.91
2023-02-05T22:14:33.159Z,-0.95
2023-02-05T22:17:00.162Z,-1.00
2023-02-05T22:19:27.000Z,-1.08
2023-02-05T22:21:53.539Z,-1.11
2023-02-05T22:24:20.669Z,-1.12
2023-02-05T22:26:47.511Z,-1.13
2023-02-05T22:29:15.455Z,-1.12
2023-02-05T22:31:42.336Z,-1.16
2023-02-05T22:34:08.695Z,-1.20
2023-02-05T22:36:35.356Z,-1.26
2023-02-05T22:39:02.515Z,-1.23
2023-02-05T22:41:30.649Z,-1.17
2023-02-05T22:43:58.120Z,-1.17
2023-02-05T22:46:26.011Z,-1.23
2023-02-05T22:48:52.907Z,-1.26
2023-02-05T22:51:21.092Z,-1.28
2023-02-05T22:53:48.856Z,-1.38
2023-02-05T22:56:15.653Z,-1.42
2023-02-05T22:58:43.293Z,-1.40
2023-02-05T23:01:13.648Z,-1.43
2023-02-05T23:03:40.293Z,-1.44
2023-02-05T23:06:11.555Z,-1.39
2023-02-05T23:08:38.358Z,-1.42
2023-02-05T23:11:05.862Z,-1.43
2023-02-05T23:13:32.408Z,-1.46
2023-02-05T23:16:04.550Z,-1.51
2023-02-05T23:18:30.857Z,-1.50
2023-02-05T23:20:57.166Z,-1.50
2023-02-05T23:23:23.585Z,-1.51
2023-02-05T23:25:51.624Z,-1.51
2023-02-05T23:28:18.446Z,-1.56
2023-02-05T23:30:45.015Z,-1.56
2023-02-05T23:33:11.377Z,-1.58
2023-02-05T23:35:37.876Z,-1.61
2023-02-05T23:38:04.231Z,-1.59
2023-02-05T23:40:30.544Z,-1.70
2023-02-05T23:42:56.850Z,-1.63
2023-02-05T23:45:23.204Z,-1.67
2023-02-05T23:47:49.481Z,-1.81
2023-02-05T23:50:15.978Z,-1.71
2023-02-05T23:52:42.316Z,-1.67
2023-02-05T23:55:08.620Z,-1.64
2023-02-05T23:57:34.928Z,-1.63
